Matthew James — WDD4491 — position and weather

sailwx.info

Track history (hours):
 
Tides and Currents Weather Stations Pressure Air Temp Water Temp Dewpoint Dewpoint Depression Visibility Wind Speed Wind Dir Waves Ship Positions

Matthew James

Owner: LeBeouf Bros. Towing, LLC, Houma, LA. More information available from US FCC via Universal Licensing System and Coast Guard Vessel Documentation Center.

Last reported at 2018-Jan-06 08:44 UTC. Time now 2018-Jan-20 09:32 UTC.
Position N 29°50' W 091°59'.
Warning: this ship's position is 14 days out of date.

Length 24 m; draft 3 m.

Type: Tug. MMSI: 367145380.

Date/timePositionNaut miles runAvg speedWind from/ knotsBaromVisibWave heightAir tempDewpointWater temp
2018-Jan-06 08:44N 29°50' W 091°59'4 5.1
2018-Jan-06 08:03N 29°49' W 092°02'0 5.1
2018-Jan-06 07:58N 29°49' W 092°03'2 5.3
2018-Jan-06 07:30N 29°48' W 092°05'3 5.3
2018-Jan-06 07:00N 29°47' W 092°08'2 4.4
2018-Jan-06 06:30N 29°47' W 092°11'2 3.0
2018-Jan-06 06:00N 29°47' W 092°12'1 1.8
2018-Jan-06 05:30N 29°48' W 092°13'0 1.0
2018-Jan-06 05:00N 29°48' W 092°14'1 2.4
2018-Jan-06 04:30N 29°48' W 092°15'1 1.7
2018-Jan-06 04:00N 29°49' W 092°16'0 0.6
2018-Jan-06 03:30N 29°49' W 092°16'2 3.2
2018-Jan-06 03:01N 29°50' W 092°18'2 3.9
2018-Jan-06 02:31N 29°51' W 092°20'39 4.0
2018-Jan-05 16:41N 29°56' W 093°04'0 1.8
2018-Jan-05 16:27N 29°56' W 093°05'2 4.5
2018-Jan-05 15:59N 29°56' W 093°07'2 4.6
2018-Jan-05 15:27N 29°56' W 093°10'2 4.9
2018-Jan-05 15:00N 29°58' W 093°11'2 4.9
2018-Jan-05 14:30N 29°60' W 093°13'2 4.3
2018-Jan-05 14:00N 30°02' W 093°15'2 3.4
2018-Jan-05 13:30N 30°03' W 093°16'1 2.6
2018-Jan-05 13:01N 30°04' W 093°16'1 2.8
2018-Jan-05 12:30N 30°05' W 093°18'1 2.1
2018-Jan-05 12:00N 30°06' W 093°18'0 0.2
2018-Jan-05 11:30N 30°06' W 093°18'0 0.1
2018-Jan-05 11:00N 30°06' W 093°18'0 0.0
2018-Jan-05 10:30N 30°06' W 093°18'0 0.6
2018-Jan-05 10:00N 30°06' W 093°19'2 4.3
2018-Jan-05 09:30N 30°05' W 093°20'2 3.2
2018-Jan-05 09:00N 30°04' W 093°22'2 4.0
2018-Jan-05 08:30N 30°04' W 093°24'2 4.8
2018-Jan-05 08:00N 30°04' W 093°27'3 5.2
2018-Jan-05 07:30N 30°04' W 093°30'3 5.0
2018-Jan-05 07:00N 30°04' W 093°33'3 5.2
2018-Jan-05 06:30N 30°04' W 093°36'3 5.9
2018-Jan-05 06:00N 30°04' W 093°39'3 6.1
2018-Jan-05 05:30N 30°03' W 093°43'69 3.1
2018-Jan-04 07:05N 29°31' W 094°53'1 7.2
2018-Jan-04 06:59N 29°32' W 094°53'3 7.2
2018-Jan-04 06:30N 29°34' W 094°56'4 7.0
2018-Jan-04 06:00N 29°37' W 094°58'4 7.3
2018-Jan-04 05:30N 29°41' W 094°59'3 6.0
2018-Jan-04 05:00N 29°43' W 095°01'3 5.9
2018-Jan-04 04:29N 29°45' W 095°04'4 5.6
2018-Jan-04 03:51N 29°44' W 095°08'2 6.7
2018-Jan-04 03:30N 29°45' W 095°10'2 4.0
2018-Jan-04 02:53N 29°44' W 095°13'1 3.7
2018-Jan-04 02:30N 29°43' W 095°14'0 0.7
2018-Jan-04 01:56N 29°43' W 095°14'1 1.3
2018-Jan-04 01:30N 29°44' W 095°14'0 0.0
2018-Jan-04 01:00N 29°44' W 095°14'0 0.0
2018-Jan-04 00:30N 29°44' W 095°14'0 0.0
2018-Jan-04 00:00N 29°44' W 095°14'0 0.0
2018-Jan-03 23:30N 29°44' W 095°14'0 0.0
2018-Jan-03 22:56N 29°44' W 095°14'0 0.0
2018-Jan-03 22:29N 29°44' W 095°14'0 0.0
2018-Jan-03 21:59N 29°44' W 095°14'0 0.0
2018-Jan-03 21:30N 29°44' W 095°14'0 0.0
2018-Jan-03 18:59N 29°44' W 095°14'0 0.0
2018-Jan-03 18:26N 29°44' W 095°14'0 0.0
2018-Jan-03 17:05N 29°44' W 095°14'0 0.0
2018-Jan-03 17:00N 29°44' W 095°14'0 0.0
2018-Jan-03 16:30N 29°44' W 095°14'0 0.0
2018-Jan-03 15:59N 29°44' W 095°14'0 0.0
2018-Jan-03 15:23N 29°44' W 095°14'0 0.0
2018-Jan-03 15:00N 29°44' W 095°14'0 0.0
2018-Jan-03 14:30N 29°44' W 095°14'0 0.0
2018-Jan-03 14:00N 29°44' W 095°14'0 0.0
2018-Jan-03 13:30N 29°44' W 095°14'0 0.0
2018-Jan-03 13:00N 29°44' W 095°14'0 0.0
2018-Jan-03 12:30N 29°44' W 095°14'0 0.0
2018-Jan-03 12:00N 29°44' W 095°14'0 0.0
2018-Jan-03 11:30N 29°44' W 095°14'0 0.0
2018-Jan-03 11:00N 29°44' W 095°14'0 0.0
2018-Jan-03 10:30N 29°44' W 095°14'0 0.0
2018-Jan-03 10:00N 29°44' W 095°14'0 0.0
2018-Jan-03 09:30N 29°44' W 095°14'0 0.0
2018-Jan-03 08:54N 29°44' W 095°14'0 0.0
2018-Jan-03 08:29N 29°44' W 095°14'0 0.0
2018-Jan-03 08:00N 29°44' W 095°14'0 0.0
2018-Jan-03 07:30N 29°44' W 095°14'0 0.0
2018-Jan-03 07:00N 29°44' W 095°14'0 0.0
2018-Jan-03 06:28N 29°44' W 095°14'0 0.0
2018-Jan-03 05:59N 29°44' W 095°14'0 0.0
2018-Jan-03 05:30N 29°44' W 095°14'0 0.0
2018-Jan-03 05:00N 29°44' W 095°14'0 0.0
2018-Jan-03 04:30N 29°44' W 095°14'0 0.0
2018-Jan-03 03:59N 29°44' W 095°14'0 0.0
2018-Jan-03 03:30N 29°44' W 095°14'0 0.1
2018-Jan-03 03:00N 29°44' W 095°13'1 1.5
2018-Jan-03 02:28N 29°44' W 095°13'3 5.4
2018-Jan-03 01:59N 29°45' W 095°10'5 6.0
2018-Jan-03 01:07N 29°45' W 095°04'3 6.6
2018-Jan-03 00:39N 29°43' W 095°01'1 0.4
2018-Jan-02 20:48N 29°42' W 095°03'0 0.0
2018-Jan-02 20:19N 29°42' W 095°03'0 0.0
2018-Jan-02 20:00N 29°42' W 095°03'0 0.0
2018-Jan-02 18:18N 29°42' W 095°03'0 0.0
2018-Jan-02 17:48N 29°42' W 095°03'0 0.0
2018-Jan-02 17:30N 29°42' W 095°03'0 0.0
2018-Jan-02 17:00N 29°42' W 095°03'0 0.0
2018-Jan-02 15:54N 29°42' W 095°03'0 0.0
2018-Jan-02 15:21N 29°42' W 095°03'0 0.0
2018-Jan-02 14:54N 29°42' W 095°03'0 0.0
2018-Jan-02 14:29N 29°42' W 095°03'0 0.0
2018-Jan-02 13:55N 29°42' W 095°03'0 0.0
2018-Jan-02 13:25N 29°42' W 095°03'0 0.0
2018-Jan-02 12:50N 29°42' W 095°03'0 0.0
2018-Jan-02 11:58N 29°42' W 095°03'0 0.0
2018-Jan-02 11:07N 29°42' W 095°03'0 0.0
2018-Jan-02 10:51N 29°42' W 095°03'0 0.0
2018-Jan-02 10:30N 29°42' W 095°03'0 0.0
2018-Jan-02 09:39N 29°42' W 095°03'0 0.0
2018-Jan-02 09:28N 29°42' W 095°03'0 0.0
2018-Jan-02 07:51N 29°42' W 095°03'0 0.0
2018-Jan-02 07:29N 29°42' W 095°03'0 0.0
2018-Jan-02 07:00N 29°42' W 095°03'0 0.0
2018-Jan-02 06:29N 29°42' W 095°03'0 0.0
2018-Jan-02 05:58N 29°42' W 095°03'0 0.0
2018-Jan-02 04:29N 29°42' W 095°03'0 0.0
2018-Jan-02 03:24N 29°42' W 095°03'0 0.0
2018-Jan-02 02:59N 29°42' W 095°03'0 0.0
2018-Jan-02 02:26N 29°42' W 095°03'0 0.0
2018-Jan-02 00:56N 29°42' W 095°03'0 0.0
2018-Jan-02 00:26N 29°42' W 095°03'0 0.0
2018-Jan-01 23:57N 29°42' W 095°03'0 0.0
2018-Jan-01 23:30N 29°42' W 095°03'0 0.0
2018-Jan-01 22:58N 29°42' W 095°03'0 0.0
2018-Jan-01 22:22N 29°42' W 095°03'0 0.1
2018-Jan-01 21:54N 29°42' W 095°03'1 2.3
2018-Jan-01 21:22N 29°42' W 095°01'0 0.7
2018-Jan-01 21:00N 29°42' W 095°01'1 2.1
2018-Jan-01 20:17N 29°42' W 095°03'0 0.0
2018-Jan-01 19:27N 29°42' W 095°03'0 0.0
2018-Jan-01 17:46N 29°42' W 095°03'0 0.0
2018-Jan-01 14:40N 29°42' W 095°03'0 0.0
2018-Jan-01 14:23N 29°42' W 095°03'0 0.0
2018-Jan-01 12:42N 29°42' W 095°03'0 0.0
2018-Jan-01 10:47N 29°42' W 095°03'0 0.0
2018-Jan-01 10:30N 29°42' W 095°03'0 0.0
2018-Jan-01 08:19N 29°42' W 095°03'0 0.0
2018-Jan-01 07:59N 29°42' W 095°03'0 0.0
2018-Jan-01 07:01N 29°42' W 095°03'0 0.0
2018-Jan-01 06:58N 29°42' W 095°03'0 0.0
2018-Jan-01 05:50N 29°42' W 095°03'0 0.0
2018-Jan-01 05:25N 29°42' W 095°03'0 0.0
2018-Jan-01 05:00N 29°42' W 095°03'0 0.0
2018-Jan-01 03:52N 29°42' W 095°03'0 0.0
2018-Jan-01 03:19N 29°42' W 095°03'0 0.0
2018-Jan-01 03:00N 29°42' W 095°03'0 0.0
2018-Jan-01 02:24N 29°42' W 095°03'0 0.0
2018-Jan-01 01:54N 29°42' W 095°03'0 0.0
2018-Jan-01 01:14N 29°42' W 095°03'0 0.0
2018-Jan-01 00:24N 29°42' W 095°03'2 0.1
2017-Dec-31 06:20N 29°44' W 095°01'0 0.0
2017-Dec-31 06:00N 29°44' W 095°01'0 0.0
2017-Dec-31 05:11N 29°44' W 095°01'0 0.0
2017-Dec-31 04:54N 29°44' W 095°01'0 0.0
2017-Dec-31 04:30N 29°44' W 095°01'0 0.0
2017-Dec-31 03:55N 29°44' W 095°01'0 0.0
2017-Dec-31 03:28N 29°44' W 095°01'3 0.3
2017-Dec-30 16:18N 29°46' W 095°04'1 3.3
2017-Dec-30 15:53N 29°44' W 095°04'1 0.1
2017-Dec-30 03:59N 29°44' W 095°03'0 0.0
2017-Dec-30 03:16N 29°44' W 095°03'0 0.0
2017-Dec-30 02:59N 29°44' W 095°03'0 0.0
2017-Dec-30 02:29N 29°44' W 095°03'0 0.0
2017-Dec-30 02:00N 29°44' W 095°03'0 0.0
2017-Dec-30 01:30N 29°44' W 095°03'0 0.0
2017-Dec-30 00:58N 29°44' W 095°03'0 0.0
2017-Dec-30 00:30N 29°44' W 095°03'0 0.0
2017-Dec-29 23:59N 29°44' W 095°03'0 0.0
2017-Dec-29 23:29N 29°44' W 095°03'0 0.3
2017-Dec-29 22:44N 29°44' W 095°03'0 0.8
2017-Dec-29 22:30N 29°44' W 095°03'0 0.0
2017-Dec-29 22:00N 29°44' W 095°03'0 0.0
2017-Dec-29 21:30N 29°44' W 095°03'0 0.0
2017-Dec-29 21:00N 29°44' W 095°03'0 0.0
2017-Dec-29 20:30N 29°44' W 095°03'0 0.0
2017-Dec-29 20:00N 29°44' W 095°03'0 0.0
2017-Dec-29 19:30N 29°44' W 095°03'0 0.0
2017-Dec-29 19:00N 29°44' W 095°03'0 0.2
2017-Dec-29 18:29N 29°44' W 095°03'0 0.2
2017-Dec-29 18:00N 29°44' W 095°03'0 0.0
2017-Dec-29 17:30N 29°44' W 095°03'0 0.0
2017-Dec-29 17:00N 29°44' W 095°03'0 0.0
2017-Dec-29 16:30N 29°44' W 095°03'0 0.0
2017-Dec-29 16:00N 29°44' W 095°03'0 0.0
2017-Dec-29 15:30N 29°44' W 095°03'0 0.0
2017-Dec-29 15:00N 29°44' W 095°03'0 0.0
2017-Dec-29 14:30N 29°44' W 095°03'0 0.0
2017-Dec-29 14:00N 29°44' W 095°03'0 0.0
2017-Dec-29 13:31N 29°44' W 095°03'0 0.0
2017-Dec-29 13:00N 29°44' W 095°03'0 0.0
2017-Dec-29 12:30N 29°44' W 095°03'0 0.0
2017-Dec-29 12:00N 29°44' W 095°03'0 0.0
2017-Dec-29 11:30N 29°44' W 095°03'0 0.0
2017-Dec-29 11:01N 29°44' W 095°03'0 0.0
2017-Dec-29 10:30N 29°44' W 095°03'0 0.0
2017-Dec-29 10:00N 29°44' W 095°03'0 0.0
2017-Dec-29 09:30N 29°44' W 095°03'0 0.0
2017-Dec-29 09:00N 29°44' W 095°03'0 0.0
2017-Dec-29 08:30N 29°44' W 095°03'0 0.0
2017-Dec-29 08:00N 29°44' W 095°03'0 0.0
2017-Dec-29 07:30N 29°44' W 095°03'0 0.0
2017-Dec-29 07:00N 29°44' W 095°03'0 0.0
2017-Dec-29 06:17N 29°44' W 095°03'0 0.0
2017-Dec-29 06:00N 29°44' W 095°03'0 0.0
2017-Dec-29 05:30N 29°44' W 095°03'0 0.0
2017-Dec-29 05:00N 29°44' W 095°03'0 0.0
2017-Dec-29 04:30N 29°44' W 095°03'0 0.0
2017-Dec-29 04:01N 29°44' W 095°03'0 0.0
2017-Dec-29 03:30N 29°44' W 095°03'0 0.2
2017-Dec-29 03:00N 29°44' W 095°03'3 4.8
2017-Dec-29 02:26N 29°42' W 095°01'1 2.2
2017-Dec-29 02:00N 29°42' W 094°60'4 8.6
2017-Dec-29 01:30N 29°38' W 094°58'4 8.8
2017-Dec-29 01:00N 29°34' W 094°55'5 8.9
2017-Dec-29 00:29N 29°30' W 094°52'2 0.3
2017-Dec-28 16:01N 29°32' W 094°54'0 9.2
2017-Dec-28 16:00N 29°32' W 094°54'4 8.9
2017-Dec-28 15:30N 29°36' W 094°57'4 9.0
2017-Dec-28 15:00N 29°40' W 094°58'4 6.5
2017-Dec-28 14:25N 29°42' W 095°02'1 1.7
2017-Dec-28 14:00N 29°42' W 095°03'0 0.0
2017-Dec-28 13:30N 29°42' W 095°03'0 0.0
2017-Dec-28 13:00N 29°42' W 095°03'0 0.0
2017-Dec-28 12:30N 29°42' W 095°03'0 0.0
2017-Dec-28 12:00N 29°42' W 095°03'0 0.0
2017-Dec-28 11:28N 29°42' W 095°03'0 0.0
2017-Dec-28 11:00N 29°42' W 095°03'0 0.0
2017-Dec-28 10:29N 29°42' W 095°03'0 0.0
2017-Dec-28 10:00N 29°42' W 095°03'0 0.0
2017-Dec-28 09:30N 29°42' W 095°03'0 0.0
2017-Dec-28 09:00N 29°42' W 095°03'0 0.0
2017-Dec-28 08:30N 29°42' W 095°03'0 0.0
2017-Dec-28 08:00N 29°42' W 095°03'0 0.0
2017-Dec-28 07:29N 29°42' W 095°03'0 0.0
2017-Dec-28 07:00N 29°42' W 095°03'0 0.0
2017-Dec-28 06:30N 29°42' W 095°03'0 0.0
2017-Dec-28 06:00N 29°42' W 095°03'0 0.0
2017-Dec-28 05:30N 29°42' W 095°03'0 0.0
2017-Dec-28 05:01N 29°42' W 095°03'0 0.0
2017-Dec-28 04:29N 29°42' W 095°03'0 0.0
2017-Dec-28 04:00N 29°42' W 095°03'0 0.0
2017-Dec-28 03:30N 29°42' W 095°03'0 0.0
2017-Dec-28 03:00N 29°42' W 095°03'0 0.0
2017-Dec-28 02:30N 29°42' W 095°03'0 0.0
2017-Dec-28 02:00N 29°42' W 095°03'0 0.0
2017-Dec-28 01:30N 29°42' W 095°03'0 0.0
2017-Dec-28 01:00N 29°42' W 095°03'0 0.0
2017-Dec-28 00:30N 29°42' W 095°03'0 0.0
2017-Dec-27 23:59N 29°42' W 095°03'0 0.0
2017-Dec-27 23:30N 29°42' W 095°03'0 0.0
2017-Dec-27 22:58N 29°42' W 095°03'0 0.1
2017-Dec-27 21:43N 29°42' W 095°03'4 2.9
2017-Dec-27 20:14N 29°46' W 095°06'1 2.2
2017-Dec-27 20:00N 29°46' W 095°06'1 2.6
2017-Dec-27 19:30N 29°45' W 095°06'4 1.6
2017-Dec-27 17:02N 29°42' W 095°03'0 0.0
2017-Dec-27 17:00N 29°42' W 095°03'0 0.2
2017-Dec-27 16:30N 29°42' W 095°03'0 0.0
2017-Dec-27 15:09N 29°42' W 095°03'0 0.0
2017-Dec-27 15:00N 29°42' W 095°03'0 0.0
2017-Dec-27 14:30N 29°42' W 095°03'0 0.0
2017-Dec-27 14:00N 29°42' W 095°03'0 0.0
2017-Dec-27 13:30N 29°42' W 095°03'0 0.0
2017-Dec-27 13:00N 29°42' W 095°03'0 0.0
2017-Dec-27 12:29N 29°42' W 095°03'0 0.0
2017-Dec-27 11:59N 29°42' W 095°03'0 0.0
2017-Dec-27 11:30N 29°42' W 095°03'0 0.0
2017-Dec-27 11:00N 29°42' W 095°03'0 0.0
2017-Dec-27 10:30N 29°42' W 095°03'0 0.0
2017-Dec-27 10:00N 29°42' W 095°03'0 0.0
2017-Dec-27 09:30N 29°42' W 095°03'0 0.0
2017-Dec-27 09:00N 29°42' W 095°03'  
Track history (hours):
 
Tides and Currents Weather Stations Pressure Air Temp Water Temp Dewpoint Dewpoint Depression Visibility Wind Speed Wind Dir Waves Ship Positions

Matthew James

Owner: LeBeouf Bros. Towing, LLC, Houma, LA. More information available from US FCC via Universal Licensing System and Coast Guard Vessel Documentation Center.

Last reported at 2018-Jan-06 08:44 UTC. Time now 2018-Jan-20 09:32 UTC.
Position N 29°50' W 091°59'.
Warning: this ship's position is 14 days out of date.

Length 24 m; draft 3 m.

Type: Tug. MMSI: 367145380.

Date/timePositionNaut miles runAvg speedWind from/ knotsBaromVisibWave heightAir tempDewpointWater temp
2018-Jan-06 08:44N 29°50' W 091°59'4 5.1
2018-Jan-06 08:03N 29°49' W 092°02'0 5.1
2018-Jan-06 07:58N 29°49' W 092°03'2 5.3
2018-Jan-06 07:30N 29°48' W 092°05'3 5.3
2018-Jan-06 07:00N 29°47' W 092°08'2 4.4
2018-Jan-06 06:30N 29°47' W 092°11'2 3.0
2018-Jan-06 06:00N 29°47' W 092°12'1 1.8
2018-Jan-06 05:30N 29°48' W 092°13'0 1.0
2018-Jan-06 05:00N 29°48' W 092°14'1 2.4
2018-Jan-06 04:30N 29°48' W 092°15'1 1.7
2018-Jan-06 04:00N 29°49' W 092°16'0 0.6
2018-Jan-06 03:30N 29°49' W 092°16'2 3.2
2018-Jan-06 03:01N 29°50' W 092°18'2 3.9
2018-Jan-06 02:31N 29°51' W 092°20'39 4.0
2018-Jan-05 16:41N 29°56' W 093°04'0 1.8
2018-Jan-05 16:27N 29°56' W 093°05'2 4.5
2018-Jan-05 15:59N 29°56' W 093°07'2 4.6
2018-Jan-05 15:27N 29°56' W 093°10'2 4.9
2018-Jan-05 15:00N 29°58' W 093°11'2 4.9
2018-Jan-05 14:30N 29°60' W 093°13'2 4.3
2018-Jan-05 14:00N 30°02' W 093°15'2 3.4
2018-Jan-05 13:30N 30°03' W 093°16'1 2.6
2018-Jan-05 13:01N 30°04' W 093°16'1 2.8
2018-Jan-05 12:30N 30°05' W 093°18'1 2.1
2018-Jan-05 12:00N 30°06' W 093°18'0 0.2
2018-Jan-05 11:30N 30°06' W 093°18'0 0.1
2018-Jan-05 11:00N 30°06' W 093°18'0 0.0
2018-Jan-05 10:30N 30°06' W 093°18'0 0.6
2018-Jan-05 10:00N 30°06' W 093°19'2 4.3
2018-Jan-05 09:30N 30°05' W 093°20'2 3.2
2018-Jan-05 09:00N 30°04' W 093°22'2 4.0
2018-Jan-05 08:30N 30°04' W 093°24'2 4.8
2018-Jan-05 08:00N 30°04' W 093°27'3 5.2
2018-Jan-05 07:30N 30°04' W 093°30'3 5.0
2018-Jan-05 07:00N 30°04' W 093°33'3 5.2
2018-Jan-05 06:30N 30°04' W 093°36'3 5.9
2018-Jan-05 06:00N 30°04' W 093°39'3 6.1
2018-Jan-05 05:30N 30°03' W 093°43'69 3.1
2018-Jan-04 07:05N 29°31' W 094°53'1 7.2
2018-Jan-04 06:59N 29°32' W 094°53'3 7.2
2018-Jan-04 06:30N 29°34' W 094°56'4 7.0
2018-Jan-04 06:00N 29°37' W 094°58'4 7.3
2018-Jan-04 05:30N 29°41' W 094°59'3 6.0
2018-Jan-04 05:00N 29°43' W 095°01'3 5.9
2018-Jan-04 04:29N 29°45' W 095°04'4 5.6
2018-Jan-04 03:51N 29°44' W 095°08'2 6.7
2018-Jan-04 03:30N 29°45' W 095°10'2 4.0
2018-Jan-04 02:53N 29°44' W 095°13'1 3.7
2018-Jan-04 02:30N 29°43' W 095°14'0 0.7
2018-Jan-04 01:56N 29°43' W 095°14'1 1.3
2018-Jan-04 01:30N 29°44' W 095°14'0 0.0
2018-Jan-04 01:00N 29°44' W 095°14'0 0.0
2018-Jan-04 00:30N 29°44' W 095°14'0 0.0
2018-Jan-04 00:00N 29°44' W 095°14'0 0.0
2018-Jan-03 23:30N 29°44' W 095°14'0 0.0
2018-Jan-03 22:56N 29°44' W 095°14'0 0.0
2018-Jan-03 22:29N 29°44' W 095°14'0 0.0
2018-Jan-03 21:59N 29°44' W 095°14'0 0.0
2018-Jan-03 21:30N 29°44' W 095°14'0 0.0
2018-Jan-03 18:59N 29°44' W 095°14'0 0.0
2018-Jan-03 18:26N 29°44' W 095°14'0 0.0
2018-Jan-03 17:05N 29°44' W 095°14'0 0.0
2018-Jan-03 17:00N 29°44' W 095°14'0 0.0
2018-Jan-03 16:30N 29°44' W 095°14'0 0.0
2018-Jan-03 15:59N 29°44' W 095°14'0 0.0
2018-Jan-03 15:23N 29°44' W 095°14'0 0.0
2018-Jan-03 15:00N 29°44' W 095°14'0 0.0
2018-Jan-03 14:30N 29°44' W 095°14'0 0.0
2018-Jan-03 14:00N 29°44' W 095°14'0 0.0
2018-Jan-03 13:30N 29°44' W 095°14'0 0.0
2018-Jan-03 13:00N 29°44' W 095°14'0 0.0
2018-Jan-03 12:30N 29°44' W 095°14'0 0.0
2018-Jan-03 12:00N 29°44' W 095°14'0 0.0
2018-Jan-03 11:30N 29°44' W 095°14'0 0.0
2018-Jan-03 11:00N 29°44' W 095°14'0 0.0
2018-Jan-03 10:30N 29°44' W 095°14'0 0.0
2018-Jan-03 10:00N 29°44' W 095°14'0 0.0
2018-Jan-03 09:30N 29°44' W 095°14'0 0.0
2018-Jan-03 08:54N 29°44' W 095°14'0 0.0
2018-Jan-03 08:29N 29°44' W 095°14'0 0.0
2018-Jan-03 08:00N 29°44' W 095°14'0 0.0
2018-Jan-03 07:30N 29°44' W 095°14'0 0.0
2018-Jan-03 07:00N 29°44' W 095°14'0 0.0
2018-Jan-03 06:28N 29°44' W 095°14'0 0.0
2018-Jan-03 05:59N 29°44' W 095°14'0 0.0
2018-Jan-03 05:30N 29°44' W 095°14'0 0.0
2018-Jan-03 05:00N 29°44' W 095°14'0 0.0
2018-Jan-03 04:30N 29°44' W 095°14'0 0.0
2018-Jan-03 03:59N 29°44' W 095°14'0 0.0
2018-Jan-03 03:30N 29°44' W 095°14'0 0.1
2018-Jan-03 03:00N 29°44' W 095°13'1 1.5
2018-Jan-03 02:28N 29°44' W 095°13'3 5.4
2018-Jan-03 01:59N 29°45' W 095°10'5 6.0
2018-Jan-03 01:07N 29°45' W 095°04'3 6.6
2018-Jan-03 00:39N 29°43' W 095°01'1 0.4
2018-Jan-02 20:48N 29°42' W 095°03'0 0.0
2018-Jan-02 20:19N 29°42' W 095°03'0 0.0
2018-Jan-02 20:00N 29°42' W 095°03'0 0.0
2018-Jan-02 18:18N 29°42' W 095°03'0 0.0
2018-Jan-02 17:48N 29°42' W 095°03'0 0.0
2018-Jan-02 17:30N 29°42' W 095°03'0 0.0
2018-Jan-02 17:00N 29°42' W 095°03'0 0.0
2018-Jan-02 15:54N 29°42' W 095°03'0 0.0
2018-Jan-02 15:21N 29°42' W 095°03'0 0.0
2018-Jan-02 14:54N 29°42' W 095°03'0 0.0
2018-Jan-02 14:29N 29°42' W 095°03'0 0.0
2018-Jan-02 13:55N 29°42' W 095°03'0 0.0
2018-Jan-02 13:25N 29°42' W 095°03'0 0.0
2018-Jan-02 12:50N 29°42' W 095°03'0 0.0
2018-Jan-02 11:58N 29°42' W 095°03'0 0.0
2018-Jan-02 11:07N 29°42' W 095°03'0 0.0
2018-Jan-02 10:51N 29°42' W 095°03'0 0.0
2018-Jan-02 10:30N 29°42' W 095°03'0 0.0
2018-Jan-02 09:39N 29°42' W 095°03'0 0.0
2018-Jan-02 09:28N 29°42' W 095°03'0 0.0
2018-Jan-02 07:51N 29°42' W 095°03'0 0.0
2018-Jan-02 07:29N 29°42' W 095°03'0 0.0
2018-Jan-02 07:00N 29°42' W 095°03'0 0.0
2018-Jan-02 06:29N 29°42' W 095°03'0 0.0
2018-Jan-02 05:58N 29°42' W 095°03'0 0.0
2018-Jan-02 04:29N 29°42' W 095°03'0 0.0
2018-Jan-02 03:24N 29°42' W 095°03'0 0.0
2018-Jan-02 02:59N 29°42' W 095°03'0 0.0
2018-Jan-02 02:26N 29°42' W 095°03'0 0.0
2018-Jan-02 00:56N 29°42' W 095°03'0 0.0
2018-Jan-02 00:26N 29°42' W 095°03'0 0.0
2018-Jan-01 23:57N 29°42' W 095°03'0 0.0
2018-Jan-01 23:30N 29°42' W 095°03'0 0.0
2018-Jan-01 22:58N 29°42' W 095°03'0 0.0
2018-Jan-01 22:22N 29°42' W 095°03'0 0.1
2018-Jan-01 21:54N 29°42' W 095°03'1 2.3
2018-Jan-01 21:22N 29°42' W 095°01'0 0.7
2018-Jan-01 21:00N 29°42' W 095°01'1 2.1
2018-Jan-01 20:17N 29°42' W 095°03'0 0.0
2018-Jan-01 19:27N 29°42' W 095°03'0 0.0
2018-Jan-01 17:46N 29°42' W 095°03'0 0.0
2018-Jan-01 14:40N 29°42' W 095°03'0 0.0
2018-Jan-01 14:23N 29°42' W 095°03'0 0.0
2018-Jan-01 12:42N 29°42' W 095°03'0 0.0
2018-Jan-01 10:47N 29°42' W 095°03'0 0.0
2018-Jan-01 10:30N 29°42' W 095°03'0 0.0
2018-Jan-01 08:19N 29°42' W 095°03'0 0.0
2018-Jan-01 07:59N 29°42' W 095°03'0 0.0
2018-Jan-01 07:01N 29°42' W 095°03'0 0.0
2018-Jan-01 06:58N 29°42' W 095°03'0 0.0
2018-Jan-01 05:50N 29°42' W 095°03'0 0.0
2018-Jan-01 05:25N 29°42' W 095°03'0 0.0
2018-Jan-01 05:00N 29°42' W 095°03'0 0.0
2018-Jan-01 03:52N 29°42' W 095°03'0 0.0
2018-Jan-01 03:19N 29°42' W 095°03'0 0.0
2018-Jan-01 03:00N 29°42' W 095°03'0 0.0
2018-Jan-01 02:24N 29°42' W 095°03'0 0.0
2018-Jan-01 01:54N 29°42' W 095°03'0 0.0
2018-Jan-01 01:14N 29°42' W 095°03'0 0.0
2018-Jan-01 00:24N 29°42' W 095°03'2 0.1
2017-Dec-31 06:20N 29°44' W 095°01'0 0.0
2017-Dec-31 06:00N 29°44' W 095°01'0 0.0
2017-Dec-31 05:11N 29°44' W 095°01'0 0.0
2017-Dec-31 04:54N 29°44' W 095°01'0 0.0
2017-Dec-31 04:30N 29°44' W 095°01'0 0.0
2017-Dec-31 03:55N 29°44' W 095°01'0 0.0
2017-Dec-31 03:28N 29°44' W 095°01'3 0.3
2017-Dec-30 16:18N 29°46' W 095°04'1 3.3
2017-Dec-30 15:53N 29°44' W 095°04'1 0.1
2017-Dec-30 03:59N 29°44' W 095°03'0 0.0
2017-Dec-30 03:16N 29°44' W 095°03'0 0.0
2017-Dec-30 02:59N 29°44' W 095°03'0 0.0
2017-Dec-30 02:29N 29°44' W 095°03'0 0.0
2017-Dec-30 02:00N 29°44' W 095°03'0 0.0
2017-Dec-30 01:30N 29°44' W 095°03'0 0.0
2017-Dec-30 00:58N 29°44' W 095°03'0 0.0
2017-Dec-30 00:30N 29°44' W 095°03'0 0.0
2017-Dec-29 23:59N 29°44' W 095°03'0 0.0
2017-Dec-29 23:29N 29°44' W 095°03'0 0.3
2017-Dec-29 22:44N 29°44' W 095°03'0 0.8
2017-Dec-29 22:30N 29°44' W 095°03'0 0.0
2017-Dec-29 22:00N 29°44' W 095°03'0 0.0
2017-Dec-29 21:30N 29°44' W 095°03'0 0.0
2017-Dec-29 21:00N 29°44' W 095°03'0 0.0
2017-Dec-29 20:30N 29°44' W 095°03'0 0.0
2017-Dec-29 20:00N 29°44' W 095°03'0 0.0
2017-Dec-29 19:30N 29°44' W 095°03'0 0.0
2017-Dec-29 19:00N 29°44' W 095°03'0 0.2
2017-Dec-29 18:29N 29°44' W 095°03'0 0.2
2017-Dec-29 18:00N 29°44' W 095°03'0 0.0
2017-Dec-29 17:30N 29°44' W 095°03'0 0.0
2017-Dec-29 17:00N 29°44' W 095°03'0 0.0
2017-Dec-29 16:30N 29°44' W 095°03'0 0.0
2017-Dec-29 16:00N 29°44' W 095°03'0 0.0
2017-Dec-29 15:30N 29°44' W 095°03'0 0.0
2017-Dec-29 15:00N 29°44' W 095°03'0 0.0
2017-Dec-29 14:30N 29°44' W 095°03'0 0.0
2017-Dec-29 14:00N 29°44' W 095°03'0 0.0
2017-Dec-29 13:31N 29°44' W 095°03'0 0.0
2017-Dec-29 13:00N 29°44' W 095°03'0 0.0
2017-Dec-29 12:30N 29°44' W 095°03'0 0.0
2017-Dec-29 12:00N 29°44' W 095°03'0 0.0
2017-Dec-29 11:30N 29°44' W 095°03'0 0.0
2017-Dec-29 11:01N 29°44' W 095°03'0 0.0
2017-Dec-29 10:30N 29°44' W 095°03'0 0.0
2017-Dec-29 10:00N 29°44' W 095°03'0 0.0
2017-Dec-29 09:30N 29°44' W 095°03'0 0.0
2017-Dec-29 09:00N 29°44' W 095°03'0 0.0
2017-Dec-29 08:30N 29°44' W 095°03'0 0.0
2017-Dec-29 08:00N 29°44' W 095°03'0 0.0
2017-Dec-29 07:30N 29°44' W 095°03'0 0.0
2017-Dec-29 07:00N 29°44' W 095°03'0 0.0
2017-Dec-29 06:17N 29°44' W 095°03'0 0.0
2017-Dec-29 06:00N 29°44' W 095°03'0 0.0
2017-Dec-29 05:30N 29°44' W 095°03'0 0.0
2017-Dec-29 05:00N 29°44' W 095°03'0 0.0
2017-Dec-29 04:30N 29°44' W 095°03'0 0.0
2017-Dec-29 04:01N 29°44' W 095°03'0 0.0
2017-Dec-29 03:30N 29°44' W 095°03'0 0.2
2017-Dec-29 03:00N 29°44' W 095°03'3 4.8
2017-Dec-29 02:26N 29°42' W 095°01'1 2.2
2017-Dec-29 02:00N 29°42' W 094°60'4 8.6
2017-Dec-29 01:30N 29°38' W 094°58'4 8.8
2017-Dec-29 01:00N 29°34' W 094°55'5 8.9
2017-Dec-29 00:29N 29°30' W 094°52'2 0.3
2017-Dec-28 16:01N 29°32' W 094°54'0 9.2
2017-Dec-28 16:00N 29°32' W 094°54'4 8.9
2017-Dec-28 15:30N 29°36' W 094°57'4 9.0
2017-Dec-28 15:00N 29°40' W 094°58'4 6.5
2017-Dec-28 14:25N 29°42' W 095°02'1 1.7
2017-Dec-28 14:00N 29°42' W 095°03'0 0.0
2017-Dec-28 13:30N 29°42' W 095°03'0 0.0
2017-Dec-28 13:00N 29°42' W 095°03'0 0.0
2017-Dec-28 12:30N 29°42' W 095°03'0 0.0
2017-Dec-28 12:00N 29°42' W 095°03'0 0.0
2017-Dec-28 11:28N 29°42' W 095°03'0 0.0
2017-Dec-28 11:00N 29°42' W 095°03'0 0.0
2017-Dec-28 10:29N 29°42' W 095°03'0 0.0
2017-Dec-28 10:00N 29°42' W 095°03'0 0.0
2017-Dec-28 09:30N 29°42' W 095°03'0 0.0
2017-Dec-28 09:00N 29°42' W 095°03'0 0.0
2017-Dec-28 08:30N 29°42' W 095°03'0 0.0
2017-Dec-28 08:00N 29°42' W 095°03'0 0.0
2017-Dec-28 07:29N 29°42' W 095°03'0 0.0
2017-Dec-28 07:00N 29°42' W 095°03'0 0.0
2017-Dec-28 06:30N 29°42' W 095°03'0 0.0
2017-Dec-28 06:00N 29°42' W 095°03'0 0.0
2017-Dec-28 05:30N 29°42' W 095°03'0 0.0
2017-Dec-28 05:01N 29°42' W 095°03'0 0.0
2017-Dec-28 04:29N 29°42' W 095°03'0 0.0
2017-Dec-28 04:00N 29°42' W 095°03'0 0.0
2017-Dec-28 03:30N 29°42' W 095°03'0 0.0
2017-Dec-28 03:00N 29°42' W 095°03'0 0.0
2017-Dec-28 02:30N 29°42' W 095°03'0 0.0
2017-Dec-28 02:00N 29°42' W 095°03'0 0.0
2017-Dec-28 01:30N 29°42' W 095°03'0 0.0
2017-Dec-28 01:00N 29°42' W 095°03'0 0.0
2017-Dec-28 00:30N 29°42' W 095°03'0 0.0
2017-Dec-27 23:59N 29°42' W 095°03'0 0.0
2017-Dec-27 23:30N 29°42' W 095°03'0 0.0
2017-Dec-27 22:58N 29°42' W 095°03'0 0.1
2017-Dec-27 21:43N 29°42' W 095°03'4 2.9
2017-Dec-27 20:14N 29°46' W 095°06'1 2.2
2017-Dec-27 20:00N 29°46' W 095°06'1 2.6
2017-Dec-27 19:30N 29°45' W 095°06'4 1.6
2017-Dec-27 17:02N 29°42' W 095°03'0 0.0
2017-Dec-27 17:00N 29°42' W 095°03'0 0.2
2017-Dec-27 16:30N 29°42' W 095°03'0 0.0
2017-Dec-27 15:09N 29°42' W 095°03'0 0.0
2017-Dec-27 15:00N 29°42' W 095°03'0 0.0
2017-Dec-27 14:30N 29°42' W 095°03'0 0.0
2017-Dec-27 14:00N 29°42' W 095°03'0 0.0
2017-Dec-27 13:30N 29°42' W 095°03'0 0.0
2017-Dec-27 13:00N 29°42' W 095°03'0 0.0
2017-Dec-27 12:29N 29°42' W 095°03'0 0.0
2017-Dec-27 11:59N 29°42' W 095°03'0 0.0
2017-Dec-27 11:30N 29°42' W 095°03'0 0.0
2017-Dec-27 11:00N 29°42' W 095°03'0 0.0
2017-Dec-27 10:30N 29°42' W 095°03'0 0.0
2017-Dec-27 10:00N 29°42' W 095°03'0 0.0
2017-Dec-27 09:30N 29°42' W 095°03'0 0.0
2017-Dec-27 09:00N 29°42' W 095°03'  

Dump ship's entire track history